createdAt,value
2017-09-28T00:00:37.079Z,7.23
2017-09-28T00:03:05.701Z,8.00
2017-09-28T00:05:34.815Z,7.77
2017-09-28T00:08:02.768Z,6.70
2017-09-28T00:10:30.733Z,8.60
2017-09-28T00:12:58.627Z,9.23
2017-09-28T00:15:26.641Z,9.43
2017-09-28T00:17:54.536Z,9.20
2017-09-28T00:20:22.488Z,9.10
2017-09-28T00:22:50.366Z,9.37
2017-09-28T00:25:18.237Z,9.80
2017-09-28T00:27:46.185Z,8.87
2017-09-28T00:30:14.083Z,8.60
2017-09-28T00:32:42.095Z,6.90
2017-09-28T00:35:10.076Z,7.50
2017-09-28T00:37:38.055Z,6.17
2017-09-28T00:40:06.954Z,6.70
2017-09-28T00:42:34.805Z,5.90
2017-09-28T00:45:02.605Z,6.67
2017-09-28T00:47:30.503Z,6.23
2017-09-28T00:49:58.488Z,8.07
2017-09-28T00:52:26.307Z,6.90
2017-09-28T00:54:54.060Z,5.60
2017-09-28T00:57:21.785Z,6.50
2017-09-28T00:59:49.814Z,6.90
2017-09-28T01:02:17.728Z,6.20
2017-09-28T01:04:45.784Z,6.87
2017-09-28T01:07:13.742Z,7.43
2017-09-28T01:09:41.594Z,6.80
2017-09-28T01:12:09.672Z,6.93
2017-09-28T01:14:37.573Z,6.50
2017-09-28T01:17:05.652Z,7.63
2017-09-28T01:19:33.518Z,8.10
2017-09-28T01:22:01.296Z,7.67
2017-09-28T01:24:29.397Z,6.73
2017-09-28T01:26:57.393Z,7.77
2017-09-28T01:29:25.220Z,6.57
2017-09-28T01:31:53.057Z,7.60
2017-09-28T01:34:20.902Z,6.43
2017-09-28T01:36:48.867Z,6.03
2017-09-28T01:39:16.731Z,7.00
2017-09-28T01:41:44.605Z,5.70
2017-09-28T01:44:12.492Z,7.57
2017-09-28T01:46:40.442Z,6.30
2017-09-28T01:49:08.455Z,6.10
2017-09-28T01:51:36.198Z,5.90
2017-09-28T01:54:04.210Z,5.93
2017-09-28T01:56:32.098Z,6.30
2017-09-28T01:59:00.049Z,6.63
2017-09-28T02:01:27.812Z,6.03
2017-09-28T02:03:55.707Z,6.20
2017-09-28T02:06:23.689Z,6.03
2017-09-28T02:08:51.628Z,9.00
2017-09-28T02:11:19.561Z,7.30
2017-09-28T02:13:47.444Z,7.60
2017-09-28T02:16:15.379Z,7.90
2017-09-28T02:18:43.277Z,7.00
2017-09-28T02:21:11.022Z,7.80
2017-09-28T02:23:38.852Z,6.97
2017-09-28T02:26:07.605Z,6.43
2017-09-28T02:28:35.525Z,8.17
2017-09-28T02:31:03.311Z,6.87
2017-09-28T02:33:31.233Z,6.97
2017-09-28T02:35:59.159Z,7.67
2017-09-28T02:38:27.162Z,6.50
2017-09-28T02:40:55.115Z,6.57
2017-09-28T02:43:22.799Z,5.70
2017-09-28T02:45:50.705Z,4.87
2017-09-28T02:48:18.692Z,5.33
2017-09-28T02:50:46.647Z,6.00
2017-09-28T02:53:14.603Z,6.10
2017-09-28T02:55:42.601Z,7.20
2017-09-28T02:58:10.867Z,7.10
2017-09-28T03:00:38.771Z,7.40
2017-09-28T03:03:06.748Z,7.47
2017-09-28T03:05:34.619Z,6.60
2017-09-28T03:08:02.574Z,5.17
2017-09-28T03:10:30.562Z,5.13
2017-09-28T03:12:58.252Z,5.23
2017-09-28T03:15:26.077Z,6.90
2017-09-28T03:17:54.033Z,8.17
2017-09-28T03:20:22.069Z,6.43
2017-09-28T03:22:50.119Z,6.60
2017-09-28T03:25:18.082Z,5.93
2017-09-28T03:27:46.025Z,5.70
2017-09-28T03:30:13.943Z,6.23
2017-09-28T03:32:41.728Z,5.50
2017-09-28T03:35:09.523Z,7.17
2017-09-28T03:37:37.209Z,7.20
2017-09-28T03:40:05.764Z,5.77
2017-09-28T03:42:33.715Z,7.10
2017-09-28T03:45:01.759Z,6.40
2017-09-28T03:47:29.733Z,7.63
2017-09-28T03:49:57.772Z,6.43
2017-09-28T03:52:25.708Z,6.70
2017-09-28T03:54:53.658Z,7.00
2017-09-28T03:57:21.644Z,7.07
2017-09-28T03:59:49.535Z,8.53
2017-09-28T04:02:17.419Z,6.43
2017-09-28T04:04:45.334Z,6.43
2017-09-28T04:07:13.366Z,7.03
2017-09-28T04:09:41.250Z,6.80
2017-09-28T04:12:09.292Z,9.00
2017-09-28T04:14:37.242Z,6.53
2017-09-28T04:17:05.208Z,5.93
2017-09-28T04:19:33.161Z,6.33
2017-09-28T04:22:01.080Z,7.80
2017-09-28T04:24:28.998Z,6.53
2017-09-28T04:26:56.882Z,7.00
2017-09-28T04:29:24.868Z,7.00
2017-09-28T04:31:52.765Z,6.27
2017-09-28T04:34:21.004Z,7.77
2017-09-28T04:36:48.881Z,9.40
2017-09-28T04:39:16.567Z,7.73
2017-09-28T04:41:44.272Z,7.57
2017-09-28T04:44:12.100Z,9.37
2017-09-28T04:46:40.424Z,10.40
2017-09-28T04:49:09.409Z,10.20
2017-09-28T04:51:37.160Z,10.30
2017-09-28T04:54:04.991Z,8.00
2017-09-28T04:56:32.665Z,7.43
2017-09-28T04:59:00.401Z,8.70
2017-09-28T05:01:29.111Z,8.23
2017-09-28T05:03:56.816Z,6.30
2017-09-28T05:06:24.692Z,7.83
2017-09-28T05:08:52.384Z,8.30
2017-09-28T05:11:20.106Z,7.27
2017-09-28T05:13:48.409Z,8.47
2017-09-28T05:16:16.099Z,7.70
2017-09-28T05:18:44.041Z,8.60
2017-09-28T05:21:11.738Z,7.10
2017-09-28T05:23:39.447Z,7.80
2017-09-28T05:26:07.156Z,9.07
2017-09-28T05:28:34.861Z,8.63
2017-09-28T05:31:02.701Z,8.60
2017-09-28T05:33:30.414Z,7.20
2017-09-28T05:35:58.153Z,8.17
2017-09-28T05:38:25.943Z,7.40
2017-09-28T05:40:53.763Z,9.13
2017-09-28T05:43:21.530Z,8.97
2017-09-28T05:45:49.318Z,9.53
2017-09-28T05:48:17.149Z,8.30
2017-09-28T05:50:44.943Z,5.77
2017-09-28T05:53:12.764Z,6.43
2017-09-28T05:55:40.685Z,6.43
2017-09-28T05:58:08.348Z,5.80
2017-09-28T06:00:36.166Z,7.53
2017-09-28T06:03:03.935Z,9.57
2017-09-28T06:05:32.468Z,8.70
2017-09-28T06:08:00.217Z,9.23
2017-09-28T06:10:27.934Z,9.00
2017-09-28T06:12:55.642Z,8.20
2017-09-28T06:15:23.360Z,8.90
2017-09-28T06:17:51.049Z,9.93
2017-09-28T06:20:19.814Z,10.63
2017-09-28T06:22:47.791Z,12.97
2017-09-28T06:25:15.487Z,12.13
2017-09-28T06:27:43.179Z,10.10
2017-09-28T06:30:10.934Z,12.40
2017-09-28T06:32:38.690Z,10.27
2017-09-28T06:35:06.502Z,11.43
2017-09-28T06:37:34.214Z,11.00
2017-09-28T06:40:02.014Z,11.30
2017-09-28T06:42:29.707Z,10.77
2017-09-28T06:44:57.446Z,10.83
2017-09-28T06:47:25.237Z,9.40
2017-09-28T06:49:52.963Z,8.80
2017-09-28T06:52:20.770Z,7.87
2017-09-28T06:54:48.516Z,8.37
2017-09-28T06:57:16.314Z,8.30
2017-09-28T06:59:44.013Z,7.90
2017-09-28T07:02:11.721Z,7.00
2017-09-28T07:04:39.489Z,7.97
2017-09-28T07:07:07.228Z,6.00
2017-09-28T07:09:34.938Z,7.60
2017-09-28T07:12:02.652Z,6.97
2017-09-28T07:14:30.749Z,9.00
2017-09-28T07:16:58.541Z,8.37
2017-09-28T07:19:26.228Z,8.10
2017-09-28T07:21:53.986Z,7.43
2017-09-28T07:24:21.879Z,7.60
2017-09-28T07:26:49.569Z,7.33
2017-09-28T07:29:17.323Z,6.07
2017-09-28T07:31:45.084Z,7.07
2017-09-28T07:34:12.902Z,8.40
2017-09-28T07:36:40.607Z,7.07
2017-09-28T07:39:08.334Z,8.17
2017-09-28T07:41:36.108Z,7.40
2017-09-28T07:44:03.867Z,6.07
2017-09-28T07:46:31.610Z,7.30
2017-09-28T07:48:59.387Z,6.43
2017-09-28T07:51:27.202Z,6.13
2017-09-28T07:53:55.984Z,7.07
2017-09-28T07:56:23.734Z,7.10
2017-09-28T07:58:51.665Z,7.80
2017-09-28T08:01:19.365Z,6.03
2017-09-28T08:03:47.043Z,8.20
2017-09-28T08:06:14.838Z,7.07
2017-09-28T08:08:42.534Z,7.93
2017-09-28T08:11:10.290Z,8.70
2017-09-28T08:13:38.019Z,6.27
2017-09-28T08:16:05.767Z,7.20
2017-09-28T08:18:33.548Z,6.33
2017-09-28T08:21:01.313Z,6.30
2017-09-28T08:23:29.489Z,8.20
2017-09-28T08:25:57.285Z,8.00
2017-09-28T08:28:25.766Z,6.80
2017-09-28T08:30:54.059Z,7.67
2017-09-28T08:33:21.971Z,8.47
2017-09-28T08:35:49.787Z,7.17
2017-09-28T08:38:17.544Z,7.57
2017-09-28T08:40:45.261Z,6.30
2017-09-28T08:43:12.974Z,7.97
2017-09-28T08:45:40.699Z,7.20
2017-09-28T08:48:08.465Z,7.83
2017-09-28T08:50:36.159Z,7.97
2017-09-28T08:53:04.510Z,8.87
2017-09-28T08:55:32.251Z,7.77
2017-09-28T08:57:59.984Z,7.33
2017-09-28T09:00:27.814Z,9.13
2017-09-28T09:02:55.469Z,8.60
2017-09-28T09:05:23.230Z,8.40
2017-09-28T09:07:50.898Z,8.23
2017-09-28T09:10:18.578Z,7.63
2017-09-28T09:12:46.361Z,8.17
2017-09-28T09:15:14.062Z,7.77
2017-09-28T09:17:41.772Z,8.20
2017-09-28T09:20:09.515Z,9.40
2017-09-28T09:22:37.895Z,9.67
2017-09-28T09:25:05.655Z,8.60
2017-09-28T09:27:33.355Z,8.47
2017-09-28T09:30:01.081Z,8.17
2017-09-28T09:32:28.855Z,9.13
2017-09-28T09:34:56.686Z,8.00
2017-09-28T09:37:24.394Z,8.60
2017-09-28T09:39:52.188Z,8.00
2017-09-28T09:42:19.941Z,8.13
2017-09-28T09:44:47.664Z,9.93
2017-09-28T09:47:15.436Z,7.60
2017-09-28T09:49:43.210Z,7.03
2017-09-28T09:52:10.898Z,6.93
2017-09-28T09:54:38.727Z,6.97
2017-09-28T09:57:07.092Z,7.43
2017-09-28T09:59:34.803Z,6.37
2017-09-28T10:02:02.731Z,6.30
2017-09-28T10:04:31.190Z,6.07
2017-09-28T10:07:01.611Z,7.13
2017-09-28T10:09:31.917Z,7.03
2017-09-28T10:12:02.826Z,6.30
2017-09-28T10:14:33.819Z,7.23
2017-09-28T10:17:01.681Z,7.03
2017-09-28T10:19:29.440Z,6.93
2017-09-28T10:21:57.255Z,6.67
2017-09-28T10:24:24.985Z,7.17
2017-09-28T10:26:52.788Z,6.47
2017-09-28T10:29:20.596Z,7.37
2017-09-28T10:31:49.337Z,5.83
2017-09-28T10:34:17.080Z,6.53
2017-09-28T10:36:44.836Z,6.00
2017-09-28T10:39:12.566Z,5.40
2017-09-28T10:41:40.267Z,7.83
2017-09-28T10:44:08.023Z,6.20
2017-09-28T10:46:35.748Z,7.07
2017-09-28T10:49:03.479Z,6.90
2017-09-28T10:51:31.255Z,7.93
2017-09-28T10:53:59.309Z,7.00
2017-09-28T10:56:27.146Z,6.17
2017-09-28T10:58:54.850Z,6.83
2017-09-28T11:01:22.604Z,6.17
2017-09-28T11:03:50.458Z,6.33
2017-09-28T11:06:18.393Z,7.83
2017-09-28T11:08:46.448Z,7.60
2017-09-28T11:11:14.311Z,6.40
2017-09-28T11:13:42.232Z,5.80
2017-09-28T11:16:10.653Z,6.10
2017-09-28T11:18:38.423Z,5.80
2017-09-28T11:21:06.174Z,6.53
2017-09-28T11:23:33.989Z,5.87
2017-09-28T11:26:01.729Z,6.27
2017-09-28T11:28:29.436Z,6.10
2017-09-28T11:30:57.188Z,6.03
2017-09-28T11:33:24.952Z,5.90
2017-09-28T11:35:52.698Z,6.50
2017-09-28T11:38:20.448Z,8.40
2017-09-28T11:40:48.247Z,5.03
2017-09-28T11:43:15.956Z,5.40
2017-09-28T11:45:43.701Z,5.83
2017-09-28T11:48:11.377Z,5.30
2017-09-28T11:50:39.162Z,5.40
2017-09-28T11:53:06.882Z,5.97
2017-09-28T11:55:34.622Z,4.60
2017-09-28T11:58:02.896Z,4.83
2017-09-28T12:00:30.621Z,5.00
2017-09-28T12:02:58.367Z,4.67
2017-09-28T12:05:26.161Z,5.20
2017-09-28T12:07:53.911Z,5.70
2017-09-28T12:10:21.622Z,5.93
2017-09-28T12:12:49.389Z,6.13
2017-09-28T12:15:17.080Z,6.47
2017-09-28T12:17:44.792Z,5.80
2017-09-28T12:20:12.590Z,5.40
2017-09-28T12:22:40.297Z,6.50
2017-09-28T12:25:08.004Z,5.80
2017-09-28T12:27:35.807Z,5.70
2017-09-28T12:30:03.510Z,5.43
2017-09-28T12:32:31.227Z,6.30
2017-09-28T12:34:59.052Z,5.70
2017-09-28T12:37:26.745Z,6.07
2017-09-28T12:39:54.480Z,5.70
2017-09-28T12:42:22.280Z,5.93
2017-09-28T12:44:50.028Z,6.23
2017-09-28T12:47:17.784Z,5.10
2017-09-28T12:49:45.532Z,5.93
2017-09-28T12:52:13.227Z,6.73
2017-09-28T12:54:41.321Z,6.00
2017-09-28T12:57:09.043Z,5.47
2017-09-28T12:59:36.753Z,5.50
2017-09-28T13:02:04.471Z,6.07
2017-09-28T13:04:32.184Z,6.83
2017-09-28T13:07:00.251Z,6.00
2017-09-28T13:09:27.997Z,7.00
2017-09-28T13:11:56.775Z,6.17
2017-09-28T13:14:24.523Z,5.80
2017-09-28T13:16:52.230Z,5.77
2017-09-28T13:19:20.086Z,5.77
2017-09-28T13:21:48.073Z,6.13
2017-09-28T13:24:15.766Z,6.67
2017-09-28T13:26:43.437Z,8.70
2017-09-28T13:29:11.876Z,5.30
2017-09-28T13:31:39.607Z,5.17
2017-09-28T13:34:07.305Z,5.77
2017-09-28T13:36:35.097Z,6.03
2017-09-28T13:39:02.960Z,5.80
2017-09-28T13:41:30.701Z,6.73
2017-09-28T13:43:58.457Z,6.33
2017-09-28T13:46:26.204Z,5.10
2017-09-28T13:48:54.026Z,6.77
2017-09-28T13:51:21.756Z,6.03
2017-09-28T13:53:49.485Z,5.57
2017-09-28T13:56:17.288Z,6.60
2017-09-28T13:58:45.051Z,6.03
2017-09-28T14:01:12.826Z,6.50
2017-09-28T14:03:40.587Z,7.43
2017-09-28T14:06:08.403Z,7.53
2017-09-28T14:08:36.262Z,5.70
2017-09-28T14:11:04.014Z,6.77
2017-09-28T14:13:31.804Z,6.60
2017-09-28T14:15:59.588Z,6.43
2017-09-28T14:18:27.485Z,6.77
2017-09-28T14:20:55.288Z,5.40
2017-09-28T14:23:23.020Z,6.63
2017-09-28T14:25:50.750Z,7.00
2017-09-28T14:28:18.846Z,6.57
2017-09-28T14:30:46.665Z,6.23
2017-09-28T14:33:14.432Z,6.83
2017-09-28T14:35:42.754Z,6.20
2017-09-28T14:38:10.644Z,6.83
2017-09-28T14:40:38.367Z,6.50
2017-09-28T14:43:06.986Z,6.00
2017-09-28T14:45:34.717Z,6.87
2017-09-28T14:48:02.715Z,6.80
2017-09-28T14:50:31.617Z,6.20
2017-09-28T14:52:59.312Z,6.67
2017-09-28T14:55:27.350Z,6.90
2017-09-28T14:57:56.124Z,6.50
2017-09-28T15:00:23.966Z,6.93
2017-09-28T15:02:51.756Z,7.40
2017-09-28T15:05:19.612Z,7.20
2017-09-28T15:07:47.385Z,6.63
2017-09-28T15:10:15.164Z,7.30
2017-09-28T15:12:42.864Z,6.97
2017-09-28T15:15:11.135Z,7.03
2017-09-28T15:17:38.879Z,7.40
2017-09-28T15:20:06.689Z,6.70
2017-09-28T15:22:34.461Z,7.50
2017-09-28T15:25:02.207Z,7.73
2017-09-28T15:27:30.034Z,7.60
2017-09-28T15:29:57.890Z,8.13
2017-09-28T15:32:25.667Z,7.23
2017-09-28T15:34:53.434Z,7.80
2017-09-28T15:37:21.306Z,8.23
2017-09-28T15:39:49.135Z,7.93
2017-09-28T15:42:16.948Z,9.00
2017-09-28T15:44:44.717Z,8.27
2017-09-28T15:47:12.627Z,8.90
2017-09-28T15:49:40.352Z,11.80
2017-09-28T15:52:08.192Z,10.07
2017-09-28T15:54:35.909Z,8.87
2017-09-28T15:57:03.621Z,8.90
2017-09-28T15:59:31.465Z,8.43
2017-09-28T16:01:59.215Z,8.73
2017-09-28T16:04:26.940Z,7.83
2017-09-28T16:06:54.776Z,8.03
2017-09-28T16:09:22.594Z,9.47
2017-09-28T16:11:50.390Z,8.67
2017-09-28T16:14:18.973Z,9.07
2017-09-28T16:16:46.668Z,8.23
2017-09-28T16:19:14.481Z,9.53
2017-09-28T16:21:42.253Z,9.43
2017-09-28T16:24:09.952Z,9.20
2017-09-28T16:26:37.640Z,9.77
2017-09-28T16:29:05.513Z,10.40
2017-09-28T16:31:33.305Z,9.20
2017-09-28T16:34:01.676Z,10.80
2017-09-28T16:36:29.558Z,8.70
2017-09-28T16:38:57.317Z,10.00
2017-09-28T16:41:26.137Z,9.10
2017-09-28T16:43:53.941Z,11.00
2017-09-28T16:46:21.754Z,11.90
2017-09-28T16:48:49.583Z,12.33
2017-09-28T16:51:17.330Z,10.40
2017-09-28T16:53:45.155Z,9.20
2017-09-28T16:56:14.039Z,10.50
2017-09-28T16:58:41.856Z,9.10
2017-09-28T17:01:09.680Z,8.70
2017-09-28T17:03:37.424Z,9.37
2017-09-28T17:06:05.828Z,8.73
2017-09-28T17:08:33.676Z,9.40
2017-09-28T17:11:01.560Z,8.57
2017-09-28T17:13:29.455Z,9.57
2017-09-28T17:15:57.233Z,8.50
2017-09-28T17:18:24.998Z,9.57
2017-09-28T17:20:52.790Z,9.40
2017-09-28T17:23:20.644Z,9.60
2017-09-28T17:25:48.455Z,9.10
2017-09-28T17:28:16.203Z,9.70
2017-09-28T17:30:45.109Z,9.47
2017-09-28T17:33:12.927Z,9.40
2017-09-28T17:35:40.622Z,9.10
2017-09-28T17:38:08.354Z,8.90
2017-09-28T17:40:36.205Z,13.97
2017-09-28T17:43:03.982Z,10.73
2017-09-28T17:45:31.866Z,9.20
2017-09-28T17:47:59.964Z,9.60
2017-09-28T17:50:27.754Z,11.20
2017-09-28T17:52:55.606Z,10.97
2017-09-28T17:55:24.323Z,8.80
2017-09-28T17:57:52.186Z,11.00
2017-09-28T18:00:20.153Z,9.63
2017-09-28T18:02:47.917Z,10.13
2017-09-28T18:05:15.641Z,9.53
2017-09-28T18:07:43.572Z,10.17
2017-09-28T18:10:11.341Z,10.07
2017-09-28T18:12:39.235Z,9.00
2017-09-28T18:15:08.077Z,9.13
2017-09-28T18:17:35.979Z,9.23
2017-09-28T18:20:04.329Z,9.60
2017-09-28T18:22:32.102Z,8.50
2017-09-28T18:24:59.906Z,10.10
2017-09-28T18:27:27.738Z,9.90
2017-09-28T18:29:55.772Z,10.27
2017-09-28T18:32:23.660Z,9.83
2017-09-28T18:34:51.507Z,9.60
2017-09-28T18:37:19.253Z,10.00
2017-09-28T18:39:46.957Z,10.20
2017-09-28T18:42:14.784Z,9.43
2017-09-28T18:44:42.864Z,9.17
2017-09-28T18:47:10.683Z,8.97
2017-09-28T18:49:38.466Z,8.87
2017-09-28T18:52:06.204Z,11.33
2017-09-28T18:54:33.990Z,9.07
2017-09-28T18:57:02.710Z,9.80
2017-09-28T18:59:30.542Z,9.70
2017-09-28T19:01:58.229Z,10.07
2017-09-28T19:04:26.070Z,8.93
2017-09-28T19:06:53.960Z,9.33
2017-09-28T19:09:21.788Z,10.03
2017-09-28T19:11:49.736Z,10.47
2017-09-28T19:14:17.553Z,10.20
2017-09-28T19:16:45.303Z,10.10
2017-09-28T19:19:13.114Z,9.73
2017-09-28T19:21:40.975Z,9.27
2017-09-28T19:24:08.691Z,9.17
2017-09-28T19:26:36.475Z,10.57
2017-09-28T19:29:04.321Z,10.60
2017-09-28T19:31:32.135Z,10.53
2017-09-28T19:34:00.220Z,11.60
2017-09-28T19:36:28.550Z,10.90
2017-09-28T19:38:56.576Z,10.23
2017-09-28T19:41:24.330Z,8.63
2017-09-28T19:43:53.067Z,9.20
2017-09-28T19:46:21.550Z,9.93
2017-09-28T19:48:49.290Z,9.83
2017-09-28T19:51:18.075Z,11.07
2017-09-28T19:53:45.874Z,10.10
2017-09-28T19:56:13.735Z,10.00
2017-09-28T19:58:41.724Z,9.57
2017-09-28T20:01:09.540Z,10.60
2017-09-28T20:03:37.317Z,10.63
2017-09-28T20:06:05.197Z,11.00
2017-09-28T20:08:33.387Z,10.40
2017-09-28T20:11:02.260Z,10.30
2017-09-28T20:13:30.040Z,9.67
2017-09-28T20:15:57.844Z,9.23
2017-09-28T20:18:25.678Z,8.93
2017-09-28T20:20:53.985Z,9.53
2017-09-28T20:23:21.957Z,8.67
2017-09-28T20:25:50.231Z,9.17
2017-09-28T20:28:17.981Z,9.47
2017-09-28T20:30:45.845Z,9.73
2017-09-28T20:33:13.626Z,10.80
2017-09-28T20:35:41.412Z,9.70
2017-09-28T20:38:09.330Z,9.37
2017-09-28T20:40:37.177Z,11.40
2017-09-28T20:43:04.964Z,9.63
2017-09-28T20:45:32.700Z,8.37
2017-09-28T20:48:00.537Z,10.47
2017-09-28T20:50:28.419Z,12.00
2017-09-28T20:52:56.376Z,8.90
2017-09-28T20:55:24.183Z,10.93
2017-09-28T20:57:51.958Z,10.47
2017-09-28T21:00:19.934Z,9.63
2017-09-28T21:02:47.798Z,10.73
2017-09-28T21:05:15.869Z,9.73
2017-09-28T21:07:43.708Z,10.17
2017-09-28T21:10:11.598Z,10.83
2017-09-28T21:12:39.317Z,8.57
2017-09-28T21:15:07.175Z,8.73
2017-09-28T21:17:34.925Z,10.80
2017-09-28T21:20:02.661Z,9.87
2017-09-28T21:22:30.428Z,10.00
2017-09-28T21:24:58.134Z,9.83
2017-09-28T21:27:26.020Z,11.30
2017-09-28T21:29:55.140Z,10.90
2017-09-28T21:32:22.857Z,10.80
2017-09-28T21:34:50.664Z,10.73
2017-09-28T21:37:18.376Z,9.60
2017-09-28T21:39:46.284Z,9.20
2017-09-28T21:42:14.123Z,10.10
2017-09-28T21:44:41.890Z,10.60
2017-09-28T21:47:09.673Z,10.30
2017-09-28T21:49:37.379Z,10.23
2017-09-28T21:52:05.099Z,9.70
2017-09-28T21:54:33.721Z,10.37
2017-09-28T21:57:01.592Z,11.63
2017-09-28T21:59:29.454Z,10.03
2017-09-28T22:01:57.931Z,9.63
2017-09-28T22:04:25.674Z,11.00
2017-09-28T22:06:53.541Z,10.40
2017-09-28T22:09:21.579Z,8.73
2017-09-28T22:11:49.331Z,9.37
2017-09-28T22:14:17.346Z,9.27
2017-09-28T22:16:45.086Z,9.00
2017-09-28T22:19:12.814Z,11.50
2017-09-28T22:21:40.683Z,8.63
2017-09-28T22:24:08.499Z,8.50
2017-09-28T22:26:36.486Z,9.70
2017-09-28T22:29:04.298Z,9.97
2017-09-28T22:31:32.030Z,8.80
2017-09-28T22:33:59.808Z,9.53
2017-09-28T22:36:27.506Z,8.63
2017-09-28T22:38:55.211Z,9.13
2017-09-28T22:41:23.040Z,10.07
2017-09-28T22:43:50.974Z,10.60
2017-09-28T22:46:18.747Z,9.40
2017-09-28T22:48:46.473Z,9.73
2017-09-28T22:51:14.212Z,10.50
2017-09-28T22:53:42.102Z,9.80
2017-09-28T22:56:09.846Z,10.20
2017-09-28T22:58:37.619Z,9.67
2017-09-28T23:01:05.414Z,10.93
2017-09-28T23:03:33.164Z,8.70
2017-09-28T23:06:00.925Z,9.70
2017-09-28T23:08:28.711Z,10.70
2017-09-28T23:10:56.456Z,10.30
2017-09-28T23:13:24.220Z,9.87
2017-09-28T23:15:51.897Z,10.10
2017-09-28T23:18:19.637Z,11.27
2017-09-28T23:20:47.362Z,10.63
2017-09-28T23:23:15.111Z,11.30
2017-09-28T23:25:42.937Z,10.83
2017-09-28T23:28:10.674Z,11.03
2017-09-28T23:30:38.394Z,10.70
2017-09-28T23:33:06.186Z,11.00
2017-09-28T23:35:33.968Z,9.63
2017-09-28T23:38:01.728Z,10.53
2017-09-28T23:40:29.427Z,9.93
2017-09-28T23:42:57.182Z,10.00
2017-09-28T23:45:24.885Z,9.70
2017-09-28T23:47:52.632Z,8.90
2017-09-28T23:50:20.399Z,10.10
2017-09-28T23:52:48.087Z,10.87
2017-09-28T23:55:15.852Z,10.70
2017-09-28T23:57:43.589Z,10.10
